Daily Reports
[Refresh to Update]

Barometric Pressure Shown is Corrected to Site Pressure


Today's History

2/16/20
Time         Wind Dir   Wind Spd  Wind Gust   Humidity       Temp   Tot Rain   Barom SL   24HrRain   RainRate  MonthRain
                            mph        mph          %         F         in         in         in      in/hr         in
12:00am           158        8.0       13.0       56.0       37.8       0.02      28.98       0.00      0.000       0.00
12:10am           175       14.0       14.0       55.0       38.0       0.02      28.98       0.00      0.000       0.00
12:20am           169       12.0       14.0       57.0       37.9       0.02      28.98       0.00      0.000       0.00
12:30am           176       12.0       12.0       57.0       38.1       0.02      28.98       0.00      0.000       0.00
12:40am           167       10.0       13.0       57.0       38.2       0.02      28.98       0.00      0.000       0.00
12:50am           151       11.0       11.0       58.0       38.1       0.02      28.98       0.00      0.000       0.00
1:00am            162       10.0       11.0       58.0       38.1       0.02      28.98       0.00      0.000       0.00
1:10am            148        8.0       10.0       58.0       38.2       0.02      28.98       0.00      0.000       0.00
1:20am            163        8.0       11.0       58.0       38.1       0.02      28.98       0.00      0.000       0.00
1:30am            168        7.0       11.0       58.0       38.2       0.02      28.98       0.00      0.000       0.00
1:40am            144       10.0       10.0       58.0       38.1       0.02      28.98       0.00      0.000       0.00
1:50am            146        9.0        9.0       59.0       38.0       0.02      28.98       0.00      0.000       0.00
2:00am            187       10.0       11.0       61.0       37.8       0.02      28.98       0.00      0.000       0.00
2:10am            181        7.0       10.0       61.0       37.7       0.02      28.98       0.00      0.000       0.00
2:20am            169       10.0       10.0       60.0       37.7       0.02      28.98       0.00      0.000       0.00
2:30am            172       11.0       11.0       61.0       37.5       0.02      28.97       0.00      0.000       0.00
2:40am            151        4.0        6.0       62.0       37.4       0.02      28.97       0.00      0.000       0.00
2:50am            161        6.0        6.0       62.0       37.3       0.02      28.97       0.00      0.000       0.00
3:00am            146        9.0       10.0       63.0       37.2       0.02      28.96       0.00      0.000       0.00
3:10am            144        5.0        7.0       64.0       36.9       0.02      28.96       0.00      0.000       0.00
3:20am            156        6.0        6.0       65.0       36.8       0.02      28.95       0.00      0.000       0.00
3:30am            145        2.0        3.0       66.0       36.8       0.02      28.95       0.00      0.000       0.00
3:40am            129        2.0        5.0       67.0       36.7       0.02      28.95       0.00      0.000       0.00
3:50am             99        4.0        6.0       69.0       36.3       0.02      28.95       0.00      0.000       0.00
4:00am            107        3.0        3.0       73.0       35.6       0.02      28.95       0.00      0.000       0.00
4:10am            121        2.0        3.0       73.0       35.3       0.02      28.95       0.00      0.000       0.00
4:20am            113        3.0        3.0       74.0       35.1       0.02      28.95       0.00      0.000       0.00
4:30am            113        4.0        4.0       76.0       34.8       0.02      28.95       0.00      0.000       0.00
4:40am            103        3.0        3.0       75.0       34.9       0.02      28.95       0.00      0.000       0.00
4:50am            113        3.0        4.0       76.0       34.8       0.02      28.95       0.00      0.000       0.00
5:00am            109        6.0        6.0       76.0       34.9       0.02      28.95       0.00      0.000       0.00
5:10am            125        4.0        5.0       75.0       35.2       0.02      28.96       0.00      0.000       0.00
5:20am            128        3.0        4.0       74.0       35.4       0.02      28.96       0.00      0.000       0.00
5:30am            115        6.0        6.0       74.0       35.5       0.02      28.96       0.00      0.000       0.00
5:40am            127        8.0        8.0       74.0       35.4       0.02      28.95       0.00      0.000       0.00
5:50am            109        4.0        6.0       76.0       35.0       0.02      28.95       0.00      0.000       0.00
6:00am            109        3.0        4.0       77.0       34.6       0.02      28.95       0.00      0.000       0.00
6:10am            109        4.0        6.0       77.0       34.6       0.02      28.95       0.00      0.000       0.00
6:20am            128        4.0        6.0       76.0       34.8       0.02      28.95       0.00      0.000       0.00
6:30am            127        3.0        3.0       75.0       35.0       0.02      28.95       0.00      0.000       0.00
6:40am            125        4.0        4.0       74.0       35.1       0.02      28.95       0.00      0.000       0.00
6:50am            139        3.0        4.0       74.0       35.1       0.02      28.94       0.00      0.000       0.00
7:00am            131        7.0        7.0       74.0       35.1       0.02      28.95       0.00      0.000       0.00
7:10am            140        5.0        8.0       74.0       35.2       0.02      28.95       0.00      0.000       0.00
7:20am            136        4.0        7.0       74.0       35.2       0.02      28.95       0.00      0.000       0.00
7:30am            134        7.0        7.0       74.0       35.2       0.02      28.95       0.00      0.000       0.00
7:40am            125        5.0        7.0       75.0       35.0       0.02      28.94       0.00      0.000       0.00
7:50am            135        5.0        5.0       76.0       34.8       0.02      28.95       0.00      0.000       0.00
8:00am            137        5.0        7.0       75.0       35.0       0.02      28.94       0.00      0.000       0.00
8:10am            148        4.0        7.0       75.0       35.1       0.02      28.94       0.00      0.000       0.00
8:20am            146        3.0        5.0       75.0       35.2       0.02      28.95       0.00      0.000       0.00
8:30am            159        5.0        7.0       74.0       35.5       0.02      28.95       0.00      0.000       0.00
8:40am            178        3.0        4.0       74.0       35.7       0.02      28.95       0.00      0.000       0.00
8:50am            179        2.0        4.0       74.0       35.8       0.02      28.95       0.00      0.000       0.00
9:00am            148        5.0        7.0       73.0       36.0       0.02      28.95       0.00      0.000       0.00
9:10am            140        4.0        5.0       73.0       36.2       0.02      28.95       0.00      0.000       0.00
9:20am            162        6.0        7.0       71.0       36.5       0.02      28.95       0.00      0.000       0.00
9:30am            146        5.0        5.0       71.0       37.0       0.02      28.94       0.00      0.000       0.00
9:40am            171        7.0        8.0       69.0       37.3       0.02      28.94       0.00      0.000       0.00
9:50am            168        7.0        8.0       69.0       37.4       0.02      28.94       0.00      0.000       0.00
10:00am           175        7.0        7.0       70.0       37.5       0.02      28.94       0.00      0.000       0.00
10:10am           171       11.0       11.0       69.0       37.8       0.02      28.94       0.00      0.000       0.00
10:20am           182       10.0       10.0       70.0       37.7       0.02      28.94       0.00      0.000       0.00
10:30am           175        9.0       11.0       70.0       37.7       0.02      28.94       0.00      0.000       0.00
10:40am           170        5.0        8.0       70.0       37.9       0.02      28.94       0.00      0.000       0.00
10:50am           224        8.0        9.0       72.0       38.0       0.02      28.95       0.00      0.000       0.00
11:00am           190        8.0       10.0       72.0       37.9       0.02      28.95       0.00      0.000       0.00
11:10am           206        8.0       11.0       73.0       37.7       0.02      28.94       0.00      0.000       0.00
11:20am           232        7.0        9.0       73.0       37.6       0.02      28.93       0.00      0.000       0.00
11:30am           208       10.0       11.0       73.0       37.9       0.02      28.93       0.00      0.000       0.00
11:40am           211       10.0       10.0       73.0       37.9       0.02      28.93       0.00      0.000       0.00
11:50am           224        7.0       10.0       73.0       38.0       0.02      28.93       0.00      0.000       0.00
12:00pm           213        8.0       11.0       71.0       38.5       0.02      28.93       0.00      0.000       0.00
12:10pm           225        4.0        5.0       72.0       38.7       0.02      28.93       0.00      0.000       0.00
12:20pm           196        6.0        6.0       71.0       38.8       0.02      28.92       0.00      0.000       0.00
12:30pm           232        7.0        8.0       71.0       38.8       0.02      28.92       0.00      0.000       0.00
12:40pm           207        5.0        8.0       72.0       38.8       0.02      28.92       0.00      0.000       0.00
12:50pm           203       11.0       13.0       71.0       39.2       0.02      28.92       0.00      0.000       0.00
1:00pm            175       11.0       11.0       71.0       39.5       0.02      28.92       0.00      0.000       0.00
1:10pm            180       11.0       12.0       69.0       40.2       0.02      28.91       0.00      0.000       0.00
1:20pm            202        7.0       11.0       69.0       40.1       0.02      28.91       0.00      0.000       0.00

 


Yesterday's History

2/15/20
Time         Wind Dir   Wind Spd  Wind Gust   Humidity       Temp   Tot Rain   Barom SL   24HrRain   RainRate  MonthRain
                            mph        mph          %         F         in         in         in      in/hr         in
12:00am           115        2.0        2.0       86.0        8.5       0.02      29.39       0.00     -0.010       0.00
12:10am           115        2.0        2.0       86.0        8.5       0.02      29.38       0.00     -0.010       0.00
12:20am           115        2.0        2.0       86.0        8.5       0.02      29.38       0.00     -0.010       0.00
12:30am           115        2.0        2.0       86.0        8.5       0.02      29.38       0.00     -0.010       0.00
12:40am           115        2.0        2.0       86.0        8.5       0.02      29.39       0.00     -0.010       0.00
12:50am           115        2.0        2.0       86.0        8.5       0.02      29.38       0.00     -0.010       0.00
1:00am            115        2.0        2.0       86.0        8.5       0.02      29.38       0.00     -0.010       0.00
1:10am            115        2.0        2.0       86.0        8.5       0.02      29.38       0.00     -0.010       0.00
1:20am            115        2.0        2.0       86.0        8.5       0.02      29.38       0.00     -0.010       0.00
1:30am            126        1.0        1.0       84.0        9.5       0.02      29.37       0.00      0.000       0.00
1:40am            107        2.0        2.0       85.0        9.0       0.02      29.37       0.00      0.000       0.00
1:50am            107        2.0        2.0       84.0        8.9       0.02      29.37       0.00      0.000       0.00
2:00am            107        1.0        2.0       84.0        8.3       0.02      29.38       0.00      0.000       0.00
2:10am            107        2.0        2.0       86.0        8.3       0.02      29.38       0.00      0.000       0.00
2:20am            107        3.0        3.0       86.0        8.9       0.02      29.37       0.00      0.000       0.00
2:30am             96        3.0        4.0       86.0        8.7       0.02      29.36       0.00      0.000       0.00
2:40am            131        3.0        3.0       86.0        8.1       0.02      29.37       0.00      0.000       0.00
2:50am             98        2.0        3.0       87.0        7.9       0.02      29.36       0.00      0.000       0.00
3:00am            121        3.0        3.0       87.0        8.1       0.02      29.36       0.00      0.000       0.00
3:09am            106        7.0        7.0       88.0        8.3       0.02      29.35       0.00      0.000       0.00
3:20am            109        7.0        8.0       88.0        8.3       0.02      29.35       0.00      0.000       0.00
3:30am            111        6.0        7.0       89.0        8.9       0.02      29.35       0.00      0.000       0.00
3:40am            108        6.0        6.0       88.0        9.2       0.02      29.35       0.00      0.000       0.00
3:50am            117        7.0        7.0       89.0        9.3       0.02      29.34       0.00      0.000       0.00
4:00am            109        8.0        9.0       88.0        9.0       0.02      29.34       0.00      0.000       0.00
4:10am            114        7.0        8.0       88.0        8.3       0.02      29.33       0.00      0.000       0.00
4:20am            113        7.0        8.0       89.0        7.8       0.02      29.33       0.00      0.000       0.00
4:30am            113        7.0        7.0       89.0        7.7       0.02      29.33       0.00      0.000       0.00
4:40am            142        3.0        4.0       89.0        7.8       0.02      29.34       0.00      0.000       0.00
4:50am            115        7.0        9.0       89.0        7.7       0.02      29.33       0.00      0.000       0.00
5:00am            143        4.0        7.0       89.0        8.2       0.02      29.34       0.00      0.000       0.00
5:10am            134        5.0        8.0       88.0        8.4       0.02      29.35       0.00      0.000       0.00
5:20am            100        8.0        8.0       88.0        8.9       0.02      29.34       0.00      0.000       0.00
5:30am            117        8.0        9.0       89.0        8.9       0.02      29.34       0.00      0.000       0.00
5:40am            113        6.0        7.0       88.0        9.6       0.02      29.33       0.00      0.000       0.00
5:50am            123        5.0        7.0       87.0        9.1       0.02      29.34       0.00      0.000       0.00
6:00am            119        4.0        7.0       88.0        9.1       0.02      29.34       0.00      0.000       0.00
6:10am            113        7.0        7.0       88.0        9.1       0.02      29.33       0.00      0.000       0.00
6:20am            115        4.0        6.0       88.0        9.5       0.02      29.33       0.00      0.000       0.00
6:30am            124        5.0        5.0       88.0        9.6       0.02      29.33       0.00      0.000       0.00
6:40am             99        7.0        8.0       87.0        9.5       0.02      29.31       0.00      0.000       0.00
6:50am             88        8.0        9.0       88.0        9.0       0.02      29.31       0.00      0.000       0.00
7:00am             97        9.0       10.0       88.0        9.2       0.02      29.30       0.00      0.000       0.00
7:10am            134        5.0        7.0       88.0        9.4       0.02      29.32       0.00      0.000       0.00
7:20am            144        3.0        4.0       88.0        9.4       0.02      29.32       0.00      0.000       0.00
7:30am            153        4.0        6.0       88.0        9.4       0.02      29.33       0.00      0.000       0.00
7:40am            114        2.0        4.0       88.0        9.6       0.02      29.32       0.00      0.000       0.00
7:50am             94        4.0        4.0       88.0       10.3       0.02      29.32       0.00      0.000       0.00
8:00am             86        7.0        7.0       86.0       10.1       0.02      29.31       0.00      0.000       0.00
8:10am            105        7.0        7.0       87.0       10.3       0.02      29.30       0.00      0.000       0.00
8:20am            126        8.0        8.0       87.0       11.5       0.02      29.30       0.00      0.000       0.00
8:30am            103        9.0       12.0       86.0       12.5       0.02      29.30       0.00      0.000       0.00
8:40am            132        9.0       11.0       85.0       13.0       0.02      29.30       0.00      0.000       0.00
8:50am            117       10.0       10.0       85.0       14.0       0.02      29.31       0.00      0.000       0.00
9:00am            128        8.0       10.0       84.0       13.7       0.02      29.29       0.00      0.000       0.00
9:10am            124        9.0       10.0       84.0       14.6       0.02      29.30       0.00      0.000       0.00
9:20am             94       11.0       12.0       83.0       15.0       0.02      29.29       0.00      0.000       0.00
9:30am            107       12.0       13.0       83.0       15.3       0.02      29.29       0.00      0.000       0.00
9:40am            110       13.0       13.0       82.0       16.2       0.02      29.28       0.00      0.000       0.00
9:50am            126       11.0       12.0       82.0       16.9       0.02      29.28       0.00      0.000       0.00
10:00am            96       10.0       12.0       81.0       17.6       0.02      29.27       0.00      0.000       0.00
10:10am           116       12.0       14.0       82.0       18.1       0.02      29.26       0.00      0.000       0.00
10:20am           130       13.0       17.0       81.0       18.8       0.02      29.26       0.00      0.000       0.00
10:30am           104       15.0       17.0       80.0       19.7       0.02      29.25       0.00      0.000       0.00
10:40am           121       15.0       20.0       79.0       20.3       0.02      29.24       0.00      0.000       0.00
10:50am           109       20.0       21.0       80.0       21.1       0.02      29.22       0.00      0.000       0.00
11:00am           127       17.0       19.0       80.0       22.1       0.02      29.22       0.00      0.000       0.00
11:10am           118       22.0       24.0       79.0       22.5       0.02      29.22       0.00      0.000       0.00
11:20am           107       13.0       20.0       77.0       23.1       0.02      29.21       0.00      0.000       0.00
11:30am           125       18.0       23.0       77.0       23.4       0.02      29.19       0.00      0.000       0.00
11:40am           111       19.0       24.0       75.0       24.0       0.02      29.19       0.00      0.000       0.00
11:50am           112       23.0       25.0       76.0       24.5       0.02      29.18       0.00      0.000       0.00
12:00pm           134       17.0       17.0       73.0       25.3       0.02      29.21       0.00      0.000       0.00
12:10pm           147       12.0       18.0       71.0       25.6       0.02      29.21       0.00      0.000       0.00
12:20pm           104       14.0       16.0       73.0       25.7       0.02      29.18       0.00      0.000       0.00
12:30pm           111       14.0       17.0       75.0       26.0       0.02      29.17       0.00      0.000       0.00
12:40pm           111       12.0       16.0       71.0       26.8       0.02      29.18       0.00      0.000       0.00
12:50pm           128       11.0       14.0       71.0       27.2       0.02      29.17       0.00      0.000       0.00
1:00pm            132       13.0       15.0       71.0       27.8       0.02      29.16       0.00      0.000       0.00
1:10pm            124       13.0       16.0       69.0       28.9       0.02      29.16       0.00      0.000       0.00
1:20pm            116       14.0       15.0       67.0       29.5       0.02      29.14       0.00      0.000       0.00
1:30pm            118       17.0       17.0       68.0       29.7       0.02      29.14       0.00      0.000       0.00
1:40pm            123       16.0       19.0       69.0       29.8       0.02      29.12       0.00      0.000       0.00
1:50pm            105       16.0       16.0       70.0       30.4       0.02      29.11       0.00      0.000       0.00
2:00pm            120       19.0       20.0       70.0       31.1       0.02      29.09       0.00      0.000       0.00
2:10pm            117       15.0       16.0       69.0       31.1       0.02      29.10       0.00      0.000       0.00
2:20pm            107       18.0       19.0       69.0       31.4       0.02      29.08       0.00      0.000       0.00
2:30pm            105       15.0       17.0       70.0       31.6       0.02      29.08       0.00      0.000       0.00
2:40pm            112       16.0       17.0       68.0       31.9       0.02      29.08       0.00      0.000       0.00
2:50pm            121       13.0       16.0       68.0       32.1       0.02      29.07       0.00      0.000       0.00
3:00pm            111       16.0       19.0       68.0       32.0       0.02      29.06       0.00      0.000       0.00
3:10pm            101       17.0       20.0       69.0       32.5       0.02      29.05       0.00      0.000       0.00
3:20pm            101       16.0       16.0       66.0       32.8       0.02      29.05       0.00      0.000       0.00
3:30pm            121       16.0       16.0       66.0       32.9       0.02      29.04       0.00      0.000       0.00
3:40pm            103       20.0       24.0       65.0       32.9       0.02      29.04       0.00      0.000       0.00
3:50pm            121       19.0       19.0       66.0       32.7       0.02      29.03       0.00      0.000       0.00
4:00pm            112       14.0       14.0       66.0       33.1       0.02      29.05       0.00      0.000       0.00
4:10pm            132       18.0       18.0       66.0       33.2       0.02      29.05       0.00      0.000       0.00
4:20pm            103       16.0       16.0       66.0       33.4       0.02      29.04       0.00      0.000       0.00
4:30pm            123       15.0       16.0       65.0       33.6       0.02      29.03       0.00      0.000       0.00
4:40pm            107       18.0       19.0       65.0       33.8       0.02      29.03       0.00      0.000       0.00
4:50pm            123       18.0       20.0       64.0       33.9       0.02      29.02       0.00      0.000       0.00
5:00pm            123       15.0       16.0       63.0       34.1       0.02      29.02       0.00      0.000       0.00
5:10pm            103       17.0       20.0       65.0       34.1       0.02      29.01       0.00      0.000       0.00
5:20pm            113       16.0       18.0       64.0       34.1       0.02      29.01       0.00      0.000       0.00
5:30pm            136       14.0       16.0       63.0       34.3       0.02      29.01       0.00      0.000       0.00
5:40pm            107       12.0       15.0       64.0       34.2       0.02      29.00       0.00      0.000       0.00
5:50pm            110       14.0       15.0       67.0       34.0       0.02      29.00       0.00      0.000       0.00
6:00pm            115       14.0       15.0       67.0       34.1       0.02      29.00       0.00      0.000       0.00
6:10pm            128       11.0       13.0       66.0       34.2       0.02      29.01       0.00      0.000       0.00
6:20pm            112       11.0       16.0       64.0       34.3       0.02      29.01       0.00      0.000       0.00
6:30pm            113       13.0       14.0       62.0       34.5       0.02      29.01       0.00      0.000       0.00
6:40pm            128       12.0       12.0       63.0       34.5       0.02      29.02       0.00      0.000       0.00
6:50pm            107       13.0       13.0       64.0       34.3       0.02      29.02       0.00      0.000       0.00
7:00pm            117       14.0       14.0       64.0       34.1       0.02      29.00       0.00      0.000       0.00
7:10pm            112       13.0       15.0       63.0       34.1       0.02      29.00       0.00      0.000       0.00
7:20pm            111       13.0       16.0       65.0       34.1       0.02      29.00       0.00      0.000       0.00
7:30pm            109        9.0       10.0       66.0       33.8       0.02      29.00       0.00      0.000       0.00
7:40pm            113        9.0       10.0       67.0       33.7       0.02      29.00       0.00      0.000       0.00
7:50pm            106       10.0       11.0       68.0       33.4       0.02      29.00       0.00      0.000       0.00
8:00pm            104       10.0       12.0       69.0       33.1       0.02      29.00       0.00      0.000       0.00
8:10pm            107        8.0       10.0       69.0       33.2       0.02      28.99       0.00      0.000       0.00
8:20pm            110        9.0       10.0       69.0       33.1       0.02      28.99       0.00      0.000       0.00
8:30pm            121       12.0       12.0       67.0       33.9       0.02      28.99       0.00      0.000       0.00
8:40pm            139       10.0       15.0       64.0       34.4       0.02      28.99       0.00      0.000       0.00
8:50pm            121       10.0       12.0       64.0       34.6       0.02      28.99       0.00      0.000       0.00
9:00pm            129       10.0       12.0       64.0       34.6       0.02      28.99       0.00      0.000       0.00
9:10pm            126        7.0        7.0       64.0       34.4       0.02      28.99       0.00      0.000       0.00
9:20pm            111        7.0        7.0       65.0       34.3       0.02      28.99       0.00      0.000       0.00
9:30pm            120        4.0        5.0       64.0       34.3       0.02      28.99       0.00      0.000       0.00
9:40pm            131        8.0        8.0       63.0       34.5       0.02      28.99       0.00      0.000       0.00
9:50pm            119        7.0        8.0       63.0       34.9       0.02      28.99       0.00      0.000       0.00
10:00pm           138        5.0       10.0       62.0       35.3       0.02      28.99       0.00      0.000       0.00
10:10pm           126        8.0        8.0       62.0       35.5       0.02      28.99       0.00      0.000       0.00
10:20pm           148        9.0       10.0       61.0       35.6       0.02      28.99       0.00      0.000       0.00
10:30pm           128        4.0        9.0       60.0       35.7       0.02      28.99       0.00      0.000       0.00
10:40pm           126        4.0        7.0       59.0       35.9       0.02      28.99       0.00      0.000       0.00
10:50pm           153       11.0       13.0       59.0       36.2       0.02      28.99       0.00      0.000       0.00
11:00pm           153       11.0       14.0       57.0       36.7       0.02      28.99       0.00      0.000       0.00
11:10pm           153       15.0       15.0       56.0       37.2       0.02      28.99       0.00      0.000       0.00
11:20pm           179        8.0       10.0       55.0       37.4       0.02      28.99       0.00      0.000       0.00
11:30pm           165       11.0       13.0       54.0       37.5       0.02      28.98       0.00      0.000       0.00
11:40pm           181       14.0       14.0       55.0       37.7       0.02      28.99       0.00      0.000       0.00
11:50pm           179        7.0       12.0       55.0       37.7       0.02      28.99       0.00      0.000       0.00


NOAA Yearly Report

                  YEARLY CLIMATOLOGICAL SUMMARY FOR 2020
                                        HEAT  COOL        
     MEAN                               DEG   DEG       WIND SPEED       DOM MEAN  MEAN
MON  TEMP  HIGH   DATE     LOW   DATE   DAYS  DAYS RAIN AVG  HI  DATE    DIR BAROM HUM
---------------------------------------------------------------------------------------
1    33.6  50.9   1/2/20  10.6  1/19/20  972    0  0.02   9  46  1/18/20 ESE 28.96   80
2    32.1  60.5   2/3/20   7.2  2/14/20  511    0  0.00   8  45   2/2/20 ESE 28.81   84
---------------------------------------------------------------------------------------
TOT  33.1  60.5   2/3/20   7.2  2/14/20 1482    0  0.02   8  46  1/18/20 ESE 28.91   81

HEAT BASE: 65.0
COOL BASE: 65.0


NOAA Monthly Report

                  MONTHLY CLIMATOLOGICAL SUMMARY FOR 2/2020
                                        HEAT  COOL        
     MEAN                               DEG   DEG       WIND SPEED       DOM MEAN  MEAN
DAY  TEMP  HIGH   TIME     LOW   TIME   DAYS  DAYS RAIN AVG  HI  TIME    DIR BAROM HUM
---------------------------------------------------------------------------------------
1    33.2  36.8   6:26pm  30.6   6:24am   32    0  0.00   7  35   8:18pm  SE 28.77   90
2    44.7  58.8   4:14pm  33.0   4:12am   20    0  0.00  16  45   3:56pm SSW 28.46   71
3    47.9  60.5   2:37pm  30.2   7:22am   17    0  0.00   8  30   2:12pm ESE 28.60   71
4    43.6  59.1  12:00am  30.6  11:58pm   21    0  0.00  11  26   4:12pm  NW 28.66   81
5    29.9  32.1   2:57pm  28.1   9:15pm   35    0  0.00   9  22   1:38am NNW 28.79   85
6    28.0  29.7   5:48am  25.4  11:46pm   37    0  0.00   1  10   3:02am  NW 28.36   95
7    25.8  30.2   4:24pm  21.4  10:56pm   39    0  0.00   2  16   3:52pm   S 28.48   88
8    28.3  31.5   4:12pm  22.5  12:11am   37    0  0.00   4  12   3:51am ESE 28.98   92
9    30.7  39.5  11:59pm  27.0   6:36am   34    0  0.00   8  34   7:46pm ESE 29.08   90
10   37.1  42.2   5:02am  33.8  11:56pm   28    0  0.00   8  27   3:07am WNW 28.87   95
11   33.5  37.3   2:45pm  30.4  11:58pm   31    0  0.00   7  20   3:53pm  SW 28.92   86
12   30.1  33.9   3:17pm  25.7   7:45am   35    0  0.00   6  18   3:34pm ESE 28.87   87
13   29.0  32.9   3:05pm  18.0  11:54pm   36    0  0.00  10  30   5:16pm  SW 28.76   91
14   15.2  18.0  12:00am   7.2   9:56pm   50    0  0.00   7  20  12:05am  SW 29.33   76
15   22.5  37.8  11:45pm   7.6   4:42am   43    0  0.00  10  29  11:24am ESE 29.18   75
16   36.7  39.5  12:54pm  34.5   6:04am   15    0  0.00   6  21  12:05am SSE 28.95   69
---------------------------------------------------------------------------------------
TOT  32.1  60.5   2/3/20   7.2  2/14/20  511    0  0.00   8  45   2/2/20 ESE 28.81   84

HEAT BASE: 65.0
COOL BASE: 65.0